createdAt,value
2022-10-05T00:00:20.416Z,94242.53
2022-10-05T00:02:50.698Z,94236.47
2022-10-05T00:05:25.761Z,94249.91
2022-10-05T00:07:54.877Z,94249.69
2022-10-05T00:10:23.420Z,94248.84
2022-10-05T00:12:51.326Z,94240.78
2022-10-05T00:15:21.482Z,94242.19
2022-10-05T00:17:51.839Z,94251.09
2022-10-05T00:20:25.430Z,94247.75
2022-10-05T00:23:02.173Z,94241.44
2022-10-05T00:25:29.905Z,94248.84
2022-10-05T00:28:00.135Z,94245.25
2022-10-05T00:30:33.234Z,94249.28
2022-10-05T00:33:01.181Z,94243.53
2022-10-05T00:35:29.622Z,94248.91
2022-10-05T00:37:57.466Z,94245.72
2022-10-05T00:40:37.217Z,94243.81
2022-10-05T00:43:12.531Z,94245.00
2022-10-05T00:45:53.936Z,94249.66
2022-10-05T00:48:39.296Z,94256.69
2022-10-05T00:51:06.932Z,94251.25
2022-10-05T00:53:47.797Z,94244.69
2022-10-05T00:56:40.808Z,94245.97
2022-10-05T00:59:38.090Z,94246.44
2022-10-05T01:02:25.869Z,94251.34
2022-10-05T01:05:03.604Z,94247.81
2022-10-05T01:07:47.371Z,94248.13
2022-10-05T01:10:16.105Z,94247.31
2022-10-05T01:13:02.078Z,94249.25
2022-10-05T01:16:06.745Z,94252.03
2022-10-05T01:18:48.904Z,94260.50
2022-10-05T01:21:23.041Z,94268.94
2022-10-05T01:24:09.049Z,94269.47
2022-10-05T01:27:02.856Z,94280.97
2022-10-05T01:29:52.080Z,94274.94
2022-10-05T01:32:32.075Z,94274.31
2022-10-05T01:35:25.921Z,94273.44
2022-10-05T01:38:11.391Z,94277.53
2022-10-05T01:41:16.910Z,94274.34
2022-10-05T01:43:53.552Z,94274.97
2022-10-05T01:46:38.961Z,94275.50
2022-10-05T01:49:15.303Z,94286.00
2022-10-05T01:51:52.948Z,94292.53
2022-10-05T01:54:55.573Z,94290.09
2022-10-05T01:57:27.060Z,94290.00
2022-10-05T02:00:04.586Z,94306.66
2022-10-05T02:03:16.378Z,94298.78
2022-10-05T02:05:50.053Z,94308.53
2022-10-05T02:08:48.769Z,94309.19
2022-10-05T02:11:17.247Z,94323.25
2022-10-05T02:13:50.950Z,94322.25
2022-10-05T02:16:31.816Z,94325.84
2022-10-05T02:19:14.902Z,94323.50
2022-10-05T02:21:46.555Z,94330.91
2022-10-05T02:24:24.003Z,94327.06
2022-10-05T02:26:53.527Z,94323.34
2022-10-05T02:29:26.580Z,94321.47
2022-10-05T02:31:59.172Z,94326.69
2022-10-05T02:34:42.088Z,94330.87
2022-10-05T02:37:28.740Z,94329.00
2022-10-05T02:40:09.621Z,94322.41
2022-10-05T02:43:04.980Z,94324.47
2022-10-05T02:45:41.755Z,94325.25
2022-10-05T02:48:20.954Z,94330.37
2022-10-05T02:51:00.853Z,94333.22
2022-10-05T02:53:56.015Z,94336.59
2022-10-05T02:56:36.595Z,94340.03
2022-10-05T02:59:23.231Z,94339.84
2022-10-05T03:01:56.940Z,94347.38
2022-10-05T03:04:53.964Z,94344.87
2022-10-05T03:07:41.976Z,94340.31
2022-10-05T03:10:25.352Z,94330.56
2022-10-05T03:13:05.199Z,94330.00
2022-10-05T03:15:52.087Z,94340.50
2022-10-05T03:18:40.169Z,94334.47
2022-10-05T03:21:21.900Z,94335.75
2022-10-05T03:24:26.285Z,94353.66
2022-10-05T03:27:26.280Z,94353.47
2022-10-05T03:30:09.045Z,94356.75
2022-10-05T03:32:55.810Z,94356.75
2022-10-05T03:35:57.510Z,94358.25
2022-10-05T03:38:48.466Z,94360.75
2022-10-05T03:41:28.866Z,94355.56
2022-10-05T03:44:15.798Z,94351.91
2022-10-05T03:47:05.194Z,94354.63
2022-10-05T03:49:49.985Z,94364.16
2022-10-05T03:52:23.668Z,94371.50
2022-10-05T03:55:07.203Z,94375.00
2022-10-05T03:57:38.970Z,94378.47
2022-10-05T04:00:18.252Z,94378.22
2022-10-05T04:03:00.392Z,94380.09
2022-10-05T04:05:33.039Z,94380.81
2022-10-05T04:08:16.107Z,94387.03
2022-10-05T04:10:52.364Z,94391.37
2022-10-05T04:13:24.689Z,94396.81
2022-10-05T04:16:11.690Z,94396.84
2022-10-05T04:19:19.396Z,94407.28
2022-10-05T04:22:26.163Z,94409.97
2022-10-05T04:25:05.844Z,94409.72
2022-10-05T04:27:42.138Z,94404.28
2022-10-05T04:30:15.016Z,94407.66
2022-10-05T04:32:48.236Z,94407.66
2022-10-05T04:35:34.984Z,94421.59
2022-10-05T04:38:37.790Z,94414.06
2022-10-05T04:41:25.119Z,94416.75
2022-10-05T04:44:09.130Z,94415.16
2022-10-05T04:46:58.515Z,94416.59
2022-10-05T04:49:32.395Z,94421.50
2022-10-05T04:52:15.483Z,94422.94
2022-10-05T04:55:01.878Z,94419.75
2022-10-05T04:57:46.272Z,94422.91
2022-10-05T05:00:24.510Z,94427.94
2022-10-05T05:03:20.998Z,94430.03
2022-10-05T05:06:32.969Z,94443.00
2022-10-05T05:09:28.523Z,94434.00
2022-10-05T05:11:55.898Z,94444.28
2022-10-05T05:14:27.032Z,94448.59
2022-10-05T05:17:16.125Z,94443.59
2022-10-05T05:19:51.094Z,94447.06
2022-10-05T05:22:31.895Z,94443.88
2022-10-05T05:25:17.339Z,94449.75
2022-10-05T05:28:15.366Z,94453.97
2022-10-05T05:30:44.331Z,94453.03
2022-10-05T05:33:54.483Z,94457.31
2022-10-05T05:36:52.193Z,94456.06
2022-10-05T05:39:24.888Z,94465.53
2022-10-05T05:42:01.401Z,94460.28
2022-10-05T05:44:40.664Z,94464.47
2022-10-05T05:47:21.734Z,94466.31
2022-10-05T05:50:24.648Z,94465.66
2022-10-05T05:53:01.112Z,94475.81
2022-10-05T05:55:46.610Z,94465.28
2022-10-05T05:58:24.732Z,94462.41
2022-10-05T06:00:55.410Z,94464.19
2022-10-05T06:03:32.879Z,94464.41
2022-10-05T06:06:09.669Z,94468.88
2022-10-05T06:08:47.710Z,94465.88
2022-10-05T06:11:37.742Z,94469.88
2022-10-05T06:14:16.437Z,94474.78
2022-10-05T06:17:07.888Z,94479.28
2022-10-05T06:19:40.618Z,94486.16
2022-10-05T06:22:19.922Z,94481.34
2022-10-05T06:25:02.975Z,94488.28
2022-10-05T06:27:45.145Z,94481.13
2022-10-05T06:30:18.280Z,94475.69
2022-10-05T06:33:14.443Z,94477.34
2022-10-05T06:35:56.911Z,94477.56
2022-10-05T06:38:55.095Z,94484.72
2022-10-05T06:42:06.289Z,94484.94
2022-10-05T06:45:16.692Z,94484.41
2022-10-05T06:48:06.016Z,94487.84
2022-10-05T06:50:36.928Z,94493.00
2022-10-05T06:53:28.191Z,94490.87
2022-10-05T06:56:11.023Z,94495.53
2022-10-05T06:58:55.785Z,94498.94
2022-10-05T07:01:45.634Z,94501.12
2022-10-05T07:04:58.177Z,94499.31
2022-10-05T07:07:39.699Z,94503.69
2022-10-05T07:10:24.780Z,94492.28
2022-10-05T07:13:16.437Z,94494.38
2022-10-05T07:16:12.527Z,94488.28
2022-10-05T07:19:11.680Z,94488.84
2022-10-05T07:21:48.755Z,94484.19
2022-10-05T07:24:32.304Z,94480.88
2022-10-05T07:27:35.012Z,94480.97
2022-10-05T07:30:08.849Z,94479.41
2022-10-05T07:33:05.709Z,94469.41
2022-10-05T07:36:19.447Z,94467.72
2022-10-05T07:39:05.361Z,94470.22
2022-10-05T07:41:51.933Z,94464.50
2022-10-05T07:44:41.166Z,94460.13
2022-10-05T07:47:22.552Z,94461.31
2022-10-05T07:50:04.340Z,94464.97
2022-10-05T07:52:38.477Z,94461.41
2022-10-05T07:55:16.107Z,94460.50
2022-10-05T07:58:05.527Z,94465.09
2022-10-05T08:01:08.337Z,94466.13
2022-10-05T08:03:49.620Z,94466.47
2022-10-05T08:06:46.355Z,94464.72
2022-10-05T08:09:33.933Z,94472.09
2022-10-05T08:12:33.565Z,94466.56
2022-10-05T08:15:14.319Z,94455.66
2022-10-05T08:17:49.032Z,94458.91
2022-10-05T08:20:25.652Z,94467.63
2022-10-05T08:23:19.694Z,94456.72
2022-10-05T08:26:00.867Z,94459.56
2022-10-05T08:28:44.013Z,94460.19
2022-10-05T08:31:21.801Z,94465.84
2022-10-05T08:34:22.845Z,94462.81
2022-10-05T08:37:08.992Z,94469.34
2022-10-05T08:39:41.717Z,94463.56
2022-10-05T08:42:43.916Z,94461.34
2022-10-05T08:45:21.473Z,94462.25
2022-10-05T08:48:12.722Z,94466.53
2022-10-05T08:50:50.047Z,94467.13
2022-10-05T08:53:26.711Z,94469.75
2022-10-05T08:56:06.203Z,94466.28
2022-10-05T08:59:05.046Z,94459.44
2022-10-05T09:01:41.086Z,94458.19
2022-10-05T09:04:53.783Z,94469.38
2022-10-05T09:08:05.396Z,94471.16
2022-10-05T09:11:11.117Z,94465.75
2022-10-05T09:14:19.002Z,94464.91
2022-10-05T09:17:22.025Z,94468.63
2022-10-05T09:20:26.764Z,94474.63
2022-10-05T09:23:12.603Z,94473.06
2022-10-05T09:25:57.520Z,94472.06
2022-10-05T09:28:29.984Z,94472.84
2022-10-05T09:31:15.714Z,94472.94
2022-10-05T09:34:01.511Z,94479.59
2022-10-05T09:37:08.789Z,94469.22
2022-10-05T09:40:02.822Z,94467.75
2022-10-05T09:42:54.512Z,94477.03
2022-10-05T09:45:31.399Z,94472.00
2022-10-05T09:48:07.634Z,94479.38
2022-10-05T09:50:38.305Z,94477.19
2022-10-05T09:53:24.074Z,94471.72
2022-10-05T09:56:30.353Z,94476.63
2022-10-05T09:59:05.878Z,94475.41
2022-10-05T10:01:36.753Z,94477.31
2022-10-05T10:04:41.581Z,94473.56
2022-10-05T10:07:23.789Z,94481.22
2022-10-05T10:10:16.325Z,94476.78
2022-10-05T10:13:23.599Z,94476.28
2022-10-05T10:16:30.715Z,94483.59
2022-10-05T10:19:24.911Z,94477.63
2022-10-05T10:22:31.299Z,94477.44
2022-10-05T10:25:20.741Z,94480.72
2022-10-05T10:27:54.491Z,94481.63
2022-10-05T10:30:38.560Z,94475.09
2022-10-05T10:33:40.262Z,94478.41
2022-10-05T10:36:13.933Z,94481.81
2022-10-05T10:39:05.392Z,94470.44
2022-10-05T10:41:52.279Z,94460.53
2022-10-05T10:44:38.868Z,94461.50
2022-10-05T10:47:38.517Z,94467.37
2022-10-05T10:50:25.358Z,94451.78
2022-10-05T10:52:55.544Z,94449.28
2022-10-05T10:56:00.939Z,94451.78
2022-10-05T10:58:57.886Z,94446.72
2022-10-05T11:02:04.150Z,94451.50
2022-10-05T11:04:54.025Z,94445.09
2022-10-05T11:07:55.390Z,94436.41
2022-10-05T11:10:59.022Z,94439.50
2022-10-05T11:14:02.910Z,94433.88
2022-10-05T11:16:37.716Z,94434.75
2022-10-05T11:19:35.079Z,94428.56
2022-10-05T11:22:37.253Z,94423.38
2022-10-05T11:25:11.131Z,94431.31
2022-10-05T11:27:41.535Z,94422.13
2022-10-05T11:30:35.697Z,94419.56
2022-10-05T11:33:57.482Z,94411.69
2022-10-05T11:36:43.000Z,94418.34
2022-10-05T11:39:30.839Z,94405.87
2022-10-05T11:42:29.520Z,94408.50
2022-10-05T11:45:06.448Z,94412.09
2022-10-05T11:48:10.103Z,94399.69
2022-10-05T11:51:03.599Z,94399.75
2022-10-05T11:53:39.180Z,94397.63
2022-10-05T11:56:34.745Z,94400.31
2022-10-05T11:59:13.428Z,94391.53
2022-10-05T12:02:07.691Z,94404.03
2022-10-05T12:04:54.391Z,94394.19
2022-10-05T12:07:40.453Z,94389.38
2022-10-05T12:10:23.648Z,94386.34
2022-10-05T12:12:59.273Z,94372.25
2022-10-05T12:15:45.349Z,94381.31
2022-10-05T12:18:19.107Z,94378.72
2022-10-05T12:20:54.367Z,94377.00
2022-10-05T12:23:43.476Z,94373.31
2022-10-05T12:26:16.546Z,94377.06
2022-10-05T12:28:51.835Z,94374.53
2022-10-05T12:31:25.618Z,94372.53
2022-10-05T12:34:32.125Z,94386.94
2022-10-05T12:37:31.210Z,94386.78
2022-10-05T12:40:06.368Z,94384.72
2022-10-05T12:42:42.138Z,94391.91
2022-10-05T12:45:31.627Z,94387.50
2022-10-05T12:48:05.562Z,94385.41
2022-10-05T12:50:49.694Z,94384.47
2022-10-05T12:54:14.410Z,94389.47
2022-10-05T12:56:41.722Z,94387.62
2022-10-05T12:59:34.627Z,94393.22
2022-10-05T13:02:11.375Z,94391.41
2022-10-05T13:05:04.229Z,94388.66
2022-10-05T13:08:05.255Z,94376.16
2022-10-05T13:10:32.904Z,94381.28
2022-10-05T13:13:12.932Z,94391.72
2022-10-05T13:15:58.661Z,94387.47
2022-10-05T13:19:13.262Z,94395.25
2022-10-05T13:21:47.663Z,94407.50
2022-10-05T13:24:31.500Z,94394.34
2022-10-05T13:27:14.352Z,94396.81
2022-10-05T13:29:52.311Z,94384.69
2022-10-05T13:32:36.222Z,94379.25
2022-10-05T13:35:29.951Z,94376.69
2022-10-05T13:38:03.277Z,94373.34
2022-10-05T13:40:53.878Z,94386.72
2022-10-05T13:43:39.516Z,94371.72
2022-10-05T13:46:37.067Z,94377.19
2022-10-05T13:49:26.697Z,94366.66
2022-10-05T13:52:07.867Z,94367.34
2022-10-05T13:54:44.546Z,94368.00
2022-10-05T13:57:21.407Z,94358.69
2022-10-05T13:59:53.426Z,94356.22
2022-10-05T14:02:25.762Z,94359.88
2022-10-05T14:05:19.660Z,94351.75
2022-10-05T14:08:17.120Z,94353.25
2022-10-05T14:10:47.329Z,94345.03
2022-10-05T14:13:23.862Z,94343.88
2022-10-05T14:16:04.770Z,94352.91
2022-10-05T14:18:36.812Z,94342.59
2022-10-05T14:21:14.008Z,94345.06
2022-10-05T14:23:41.795Z,94352.63
2022-10-05T14:26:26.584Z,94359.13
2022-10-05T14:29:00.285Z,94361.25
2022-10-05T14:31:37.221Z,94348.19
2022-10-05T14:34:29.815Z,94354.34
2022-10-05T14:37:01.934Z,94353.78
2022-10-05T14:39:34.623Z,94366.84
2022-10-05T14:42:32.653Z,94360.19
2022-10-05T14:45:12.833Z,94357.62
2022-10-05T14:47:49.946Z,94354.31
2022-10-05T14:50:18.023Z,94344.63
2022-10-05T14:53:11.922Z,94355.56
2022-10-05T14:55:46.103Z,94347.75
2022-10-05T14:58:13.847Z,94353.00
2022-10-05T15:00:55.502Z,94350.25
2022-10-05T15:03:31.514Z,94352.13
2022-10-05T15:06:01.976Z,94358.94
2022-10-05T15:08:37.112Z,94356.94
2022-10-05T15:11:14.296Z,94363.31
2022-10-05T15:13:45.367Z,94372.56
2022-10-05T15:16:15.877Z,94373.72
2022-10-05T15:18:49.018Z,94375.25
2022-10-05T15:21:42.464Z,94377.72
2022-10-05T15:24:24.452Z,94373.16
2022-10-05T15:26:58.085Z,94385.06
2022-10-05T15:29:42.650Z,94385.97
2022-10-05T15:32:34.426Z,94384.31
2022-10-05T15:35:20.690Z,94400.03
2022-10-05T15:37:56.751Z,94387.38
2022-10-05T15:40:30.610Z,94398.66
2022-10-05T15:43:04.679Z,94398.25
2022-10-05T15:45:53.050Z,94396.25
2022-10-05T15:48:30.053Z,94398.34
2022-10-05T15:51:05.888Z,94403.59
2022-10-05T15:54:40.608Z,94403.06
2022-10-05T15:57:21.375Z,94416.28
2022-10-05T15:59:54.497Z,94415.59
2022-10-05T16:02:52.635Z,94424.53
2022-10-05T16:05:45.385Z,94425.22
2022-10-05T16:08:54.411Z,94433.72
2022-10-05T16:11:45.415Z,94440.84
2022-10-05T16:14:40.539Z,94441.41
2022-10-05T16:17:08.234Z,94450.97
2022-10-05T16:20:14.942Z,94452.59
2022-10-05T16:22:59.563Z,94454.38
2022-10-05T16:25:59.006Z,94457.63
2022-10-05T16:29:05.132Z,94463.94
2022-10-05T16:31:44.354Z,94464.72
2022-10-05T16:34:17.344Z,94475.69
2022-10-05T16:37:23.903Z,94476.75
2022-10-05T16:40:02.434Z,94477.69
2022-10-05T16:42:50.206Z,94485.00
2022-10-05T16:45:29.035Z,94483.88
2022-10-05T16:48:02.412Z,94489.13
2022-10-05T16:50:37.371Z,94491.66
2022-10-05T16:53:17.664Z,94488.78
2022-10-05T16:55:50.586Z,94497.75
2022-10-05T16:58:42.967Z,94485.22
2022-10-05T17:01:55.481Z,94486.44
2022-10-05T17:04:40.662Z,94495.09
2022-10-05T17:07:23.266Z,94490.78
2022-10-05T17:10:10.497Z,94497.41
2022-10-05T17:12:51.506Z,94501.59
2022-10-05T17:15:38.744Z,94504.75
2022-10-05T17:18:29.560Z,94500.34
2022-10-05T17:21:23.071Z,94504.47
2022-10-05T17:23:59.862Z,94510.41
2022-10-05T17:26:45.556Z,94517.03
2022-10-05T17:29:35.072Z,94515.56
2022-10-05T17:32:16.986Z,94526.88
2022-10-05T17:35:02.868Z,94519.13
2022-10-05T17:37:35.904Z,94524.69
2022-10-05T17:40:34.783Z,94524.25
2022-10-05T17:43:08.454Z,94522.50
2022-10-05T17:45:36.157Z,94523.78
2022-10-05T17:48:09.685Z,94528.34
2022-10-05T17:51:04.689Z,94531.75
2022-10-05T17:54:02.771Z,94532.94
2022-10-05T17:56:33.948Z,94542.94
2022-10-05T17:59:04.692Z,94541.72
2022-10-05T18:01:41.932Z,94544.88
2022-10-05T18:04:12.886Z,94544.31
2022-10-05T18:06:59.720Z,94537.72
2022-10-05T18:09:27.972Z,94538.34
2022-10-05T18:12:17.189Z,94551.06
2022-10-05T18:15:07.801Z,94549.25
2022-10-05T18:17:45.418Z,94552.66
2022-10-05T18:20:27.246Z,94558.19
2022-10-05T18:23:25.805Z,94563.03
2022-10-05T18:26:04.771Z,94558.53
2022-10-05T18:29:14.181Z,94563.09
2022-10-05T18:32:03.064Z,94566.16
2022-10-05T18:34:39.761Z,94564.38
2022-10-05T18:37:27.233Z,94573.66
2022-10-05T18:39:55.058Z,94575.06
2022-10-05T18:42:39.568Z,94564.00
2022-10-05T18:45:18.942Z,94572.50
2022-10-05T18:48:15.543Z,94579.75
2022-10-05T18:51:01.176Z,94578.97
2022-10-05T18:54:11.894Z,94585.03
2022-10-05T18:57:20.743Z,94596.28
2022-10-05T19:00:07.119Z,94578.38
2022-10-05T19:02:48.556Z,94585.03
2022-10-05T19:05:48.307Z,94592.44
2022-10-05T19:08:34.427Z,94587.03
2022-10-05T19:11:18.175Z,94593.44
2022-10-05T19:14:13.791Z,94590.84
2022-10-05T19:17:02.106Z,94594.25
2022-10-05T19:19:51.178Z,94604.06
2022-10-05T19:22:44.046Z,94599.22
2022-10-05T19:25:37.644Z,94602.91
2022-10-05T19:28:17.904Z,94607.53
2022-10-05T19:30:48.285Z,94610.34
2022-10-05T19:34:04.098Z,94606.75
2022-10-05T19:36:40.765Z,94613.59
2022-10-05T19:39:21.697Z,94608.53
2022-10-05T19:42:06.688Z,94613.53
2022-10-05T19:45:03.944Z,94615.53
2022-10-05T19:47:31.235Z,94611.63
2022-10-05T19:50:18.766Z,94623.69
2022-10-05T19:52:50.907Z,94612.66
2022-10-05T19:55:22.538Z,94608.72
2022-10-05T19:58:01.408Z,94610.16
2022-10-05T20:00:31.433Z,94613.34
2022-10-05T20:03:17.143Z,94616.78
2022-10-05T20:05:45.396Z,94617.19
2022-10-05T20:08:19.378Z,94617.50
2022-10-05T20:11:23.840Z,94617.69
2022-10-05T20:13:57.639Z,94619.69
2022-10-05T20:22:47.158Z,94623.03
2022-10-05T20:25:17.904Z,94614.72
2022-10-05T20:27:51.900Z,94625.44
2022-10-05T20:30:23.549Z,94632.44
2022-10-05T20:32:52.862Z,94621.94
2022-10-05T20:35:23.178Z,94622.81
2022-10-05T20:37:50.542Z,94625.97
2022-10-05T20:40:20.473Z,94624.12
2022-10-05T20:42:48.193Z,94629.34
2022-10-05T20:45:15.683Z,94624.53
2022-10-05T20:47:43.282Z,94634.03
2022-10-05T20:50:11.304Z,94632.50
2022-10-05T20:52:39.019Z,94626.97
2022-10-05T20:55:09.153Z,94633.78
2022-10-05T20:57:43.741Z,94627.97
2022-10-05T21:00:12.787Z,94630.44
2022-10-05T21:02:40.811Z,94637.16
2022-10-05T21:05:09.285Z,94636.41
2022-10-05T21:07:36.676Z,94630.09
2022-10-05T21:10:04.774Z,94636.19
2022-10-05T21:12:34.122Z,94634.94
2022-10-05T21:15:01.610Z,94641.16
2022-10-05T21:17:29.250Z,94638.88
2022-10-05T21:19:57.814Z,94637.81
2022-10-05T21:22:25.225Z,94637.28
2022-10-05T21:24:53.214Z,94637.84
2022-10-05T21:27:20.477Z,94638.09
2022-10-05T21:29:47.718Z,94639.75
2022-10-05T21:32:15.402Z,94630.09
2022-10-05T21:34:42.682Z,94641.78
2022-10-05T21:37:09.980Z,94638.97
2022-10-05T21:39:37.633Z,94645.53
2022-10-05T21:42:05.102Z,94640.75
2022-10-05T21:44:32.430Z,94639.69
2022-10-05T21:47:00.761Z,94637.09
2022-10-05T21:49:28.788Z,94636.66
2022-10-05T21:51:56.485Z,94642.28
2022-10-05T21:54:24.533Z,94644.81
2022-10-05T21:56:55.828Z,94641.88
2022-10-05T21:59:29.100Z,94645.78
2022-10-05T22:01:56.825Z,94648.84
2022-10-05T22:04:24.679Z,94639.62
2022-10-05T22:06:52.032Z,94653.06
2022-10-05T22:09:19.355Z,94644.84
2022-10-05T22:11:48.539Z,94644.81
2022-10-05T22:14:16.305Z,94638.41
2022-10-05T22:16:44.524Z,94636.78
2022-10-05T22:19:18.828Z,94639.16
2022-10-05T22:21:46.186Z,94633.59
2022-10-05T22:24:13.958Z,94639.12
2022-10-05T22:26:44.028Z,94636.63
2022-10-05T22:29:11.943Z,94636.19
2022-10-05T22:31:39.934Z,94631.62
2022-10-05T22:34:07.413Z,94636.47
2022-10-05T22:36:36.013Z,94629.22
2022-10-05T22:39:04.068Z,94632.28
2022-10-05T22:41:31.438Z,94628.66
2022-10-05T22:43:59.286Z,94636.19
2022-10-05T22:46:27.026Z,94634.47
2022-10-05T22:48:54.285Z,94624.44
2022-10-05T22:51:21.547Z,94627.41
2022-10-05T22:53:49.182Z,94629.56
2022-10-05T22:56:18.314Z,94624.00
2022-10-05T22:58:45.889Z,94621.22
2022-10-05T23:01:18.685Z,94623.62
2022-10-05T23:03:46.388Z,94625.69
2022-10-05T23:06:26.656Z,94613.59
2022-10-05T23:08:54.493Z,94614.41
2022-10-05T23:11:26.027Z,94618.06
2022-10-05T23:13:58.145Z,94615.38
2022-10-05T23:16:28.131Z,94613.69
2022-10-05T23:18:56.495Z,94615.13
2022-10-05T23:21:25.952Z,94613.44
2022-10-05T23:23:54.027Z,94619.87
2022-10-05T23:26:23.685Z,94616.91
2022-10-05T23:28:51.529Z,94615.19
2022-10-05T23:31:22.316Z,94611.16
2022-10-05T23:33:50.033Z,94616.81
2022-10-05T23:36:22.855Z,94612.59
2022-10-05T23:38:51.252Z,94619.41
2022-10-05T23:41:20.054Z,94618.06
2022-10-05T23:43:47.827Z,94620.53
2022-10-05T23:46:15.557Z,94618.25
2022-10-05T23:48:42.853Z,94617.16
2022-10-05T23:51:12.267Z,94617.50
2022-10-05T23:53:40.171Z,94617.91
2022-10-05T23:56:07.758Z,94614.53
2022-10-05T23:58:35.102Z,94611.41
